Terminal Aerodrome Forecast
Issued by NWS

Home | Current Version | Previous Version | Text Only | Print | Product List | Glossary On
Versions: 1 2 3 4 5 6 7 8 9 10 11 12 13
000
FTUS43 KGLD 181700
TAFMCK
TAF
KMCK 181731Z 1818/1918 18020G30KT P6SM SCT250
     FM190100 17016G21KT P6SM SKC
     FM191200 12012KT P6SM BKN250=

USA.gov is the U.S. government's official web portal to all federal, state and local government web resources and services.